createdAt,value
2018-06-17T00:00:10.899Z,18.95
2018-06-17T00:00:42.067Z,18.95
2018-06-17T00:01:13.240Z,18.95
2018-06-17T00:01:44.409Z,18.95
2018-06-17T00:02:15.647Z,18.93
2018-06-17T00:02:46.821Z,18.93
2018-06-17T00:03:17.987Z,18.92
2018-06-17T00:03:49.152Z,18.91
2018-06-17T00:04:20.321Z,18.92
2018-06-17T00:04:51.507Z,18.91
2018-06-17T00:05:22.685Z,18.92
2018-06-17T00:05:53.895Z,18.94
2018-06-17T00:06:25.071Z,18.90
2018-06-17T00:06:56.255Z,18.94
2018-06-17T00:07:27.468Z,18.96
2018-06-17T00:07:58.666Z,18.94
2018-06-17T00:08:29.841Z,18.94
2018-06-17T00:09:01.031Z,18.94
2018-06-17T00:09:32.228Z,18.93
2018-06-17T00:10:03.483Z,18.93
2018-06-17T00:10:34.655Z,18.92
2018-06-17T00:11:06.681Z,18.90
2018-06-17T00:11:37.863Z,18.91
2018-06-17T00:12:09.033Z,18.89
2018-06-17T00:12:40.227Z,18.88
2018-06-17T00:13:11.400Z,18.86
2018-06-17T00:13:42.590Z,18.88
2018-06-17T00:14:13.788Z,18.89
2018-06-17T00:14:44.975Z,18.88
2018-06-17T00:15:16.228Z,18.88
2018-06-17T00:15:47.411Z,18.87
2018-06-17T00:16:18.589Z,18.88
2018-06-17T00:16:49.765Z,18.88
2018-06-17T00:17:20.932Z,18.88
2018-06-17T00:17:52.132Z,18.91
2018-06-17T00:18:23.297Z,18.90
2018-06-17T00:18:54.467Z,18.86
2018-06-17T00:19:25.662Z,18.87
2018-06-17T00:19:56.819Z,18.89
2018-06-17T00:20:28.021Z,18.87
2018-06-17T00:20:59.212Z,18.86
2018-06-17T00:21:30.406Z,18.84
2018-06-17T00:22:01.588Z,18.84
2018-06-17T00:22:32.786Z,18.83
2018-06-17T00:23:04.035Z,18.83
2018-06-17T00:23:35.235Z,18.83
2018-06-17T00:24:06.404Z,18.78
2018-06-17T00:24:37.648Z,18.76
2018-06-17T00:25:08.826Z,18.73
2018-06-17T00:25:40.042Z,18.74
2018-06-17T00:26:11.209Z,18.74
2018-06-17T00:26:42.418Z,18.75
2018-06-17T00:27:13.631Z,18.75
2018-06-17T00:27:44.797Z,18.76
2018-06-17T00:28:15.985Z,18.78
2018-06-17T00:28:47.218Z,18.80
2018-06-17T00:29:18.418Z,18.81
2018-06-17T00:29:49.610Z,18.83
2018-06-17T00:30:20.823Z,18.83
2018-06-17T00:30:52.072Z,18.77
2018-06-17T00:31:23.240Z,18.77
2018-06-17T00:31:54.408Z,18.74
2018-06-17T00:32:25.575Z,18.75
2018-06-17T00:32:56.749Z,18.75
2018-06-17T00:33:27.915Z,18.76
2018-06-17T00:33:59.083Z,18.77
2018-06-17T00:34:30.290Z,18.77
2018-06-17T00:35:01.467Z,18.75
2018-06-17T00:35:32.663Z,18.76
2018-06-17T00:36:03.851Z,18.77
2018-06-17T00:36:35.100Z,18.79
2018-06-17T00:37:06.311Z,18.80
2018-06-17T00:37:37.528Z,18.78
2018-06-17T00:38:08.715Z,18.80
2018-06-17T00:38:39.882Z,18.78
2018-06-17T00:39:12.335Z,18.76
2018-06-17T00:39:43.499Z,18.75
2018-06-17T00:40:14.700Z,18.74
2018-06-17T00:40:45.915Z,18.73
2018-06-17T00:41:17.111Z,18.72
2018-06-17T00:41:48.275Z,18.69
2018-06-17T00:42:19.446Z,18.68
2018-06-17T00:42:50.680Z,18.67
2018-06-17T00:43:21.876Z,18.65
2018-06-17T00:43:53.058Z,18.65
2018-06-17T00:44:24.249Z,18.64
2018-06-17T00:44:55.438Z,18.63
2018-06-17T00:45:26.621Z,18.65
2018-06-17T00:45:57.814Z,18.68
2018-06-17T00:46:28.974Z,18.69
2018-06-17T00:47:00.135Z,18.73
2018-06-17T00:47:31.299Z,18.77
2018-06-17T00:48:02.492Z,18.78
2018-06-17T00:48:33.664Z,18.81
2018-06-17T00:49:04.831Z,18.86
2018-06-17T00:49:36.003Z,18.87
2018-06-17T00:50:07.168Z,18.86
2018-06-17T00:50:38.354Z,18.86
2018-06-17T00:51:09.588Z,18.87
2018-06-17T00:51:40.787Z,18.86
2018-06-17T00:52:11.990Z,18.87
2018-06-17T00:52:43.152Z,18.87
2018-06-17T00:53:14.343Z,18.82
2018-06-17T00:53:45.528Z,18.83
2018-06-17T00:54:16.696Z,18.84
2018-06-17T00:54:47.926Z,18.85
2018-06-17T00:55:19.104Z,18.80
2018-06-17T00:55:50.281Z,18.77
2018-06-17T00:56:21.461Z,18.76
2018-06-17T00:56:52.627Z,18.74
2018-06-17T00:57:23.796Z,18.72
2018-06-17T00:57:54.956Z,18.71
2018-06-17T00:58:26.145Z,18.73
2018-06-17T00:58:57.328Z,18.74
2018-06-17T00:59:28.511Z,18.76
2018-06-17T00:59:59.735Z,18.77
2018-06-17T01:00:30.914Z,18.75
2018-06-17T01:01:02.108Z,18.78
2018-06-17T01:01:33.307Z,18.80
2018-06-17T01:02:04.486Z,18.82
2018-06-17T01:02:35.648Z,18.86
2018-06-17T01:03:06.816Z,18.87
2018-06-17T01:03:37.992Z,18.89
2018-06-17T01:04:09.235Z,18.88
2018-06-17T01:04:40.459Z,18.91
2018-06-17T01:05:11.657Z,18.91
2018-06-17T01:05:42.832Z,18.94
2018-06-17T01:06:14.091Z,18.92
2018-06-17T01:06:45.260Z,18.94
2018-06-17T01:07:16.424Z,18.95
2018-06-17T01:07:47.597Z,18.99
2018-06-17T01:08:18.771Z,18.98
2018-06-17T01:08:49.935Z,18.98
2018-06-17T01:09:21.144Z,19.00
2018-06-17T01:09:52.311Z,19.01
2018-06-17T01:10:23.507Z,19.01
2018-06-17T01:10:54.713Z,18.99
2018-06-17T01:11:25.980Z,18.99
2018-06-17T01:11:57.143Z,19.00
2018-06-17T01:12:28.344Z,19.01
2018-06-17T01:12:59.525Z,19.00
2018-06-17T01:13:30.688Z,19.02
2018-06-17T01:14:01.930Z,19.03
2018-06-17T01:14:33.091Z,19.03
2018-06-17T01:15:04.257Z,19.02
2018-06-17T01:15:35.430Z,19.02
2018-06-17T01:16:06.603Z,19.00
2018-06-17T01:16:37.772Z,18.97
2018-06-17T01:17:08.956Z,18.94
2018-06-17T01:17:40.126Z,18.91
2018-06-17T01:18:11.286Z,18.91
2018-06-17T01:18:42.456Z,18.89
2018-06-17T01:19:13.672Z,18.85
2018-06-17T01:19:44.846Z,18.83
2018-06-17T01:20:16.016Z,18.85
2018-06-17T01:20:47.202Z,18.85
2018-06-17T01:21:18.375Z,18.84
2018-06-17T01:21:49.545Z,18.85
2018-06-17T01:22:20.716Z,18.86
2018-06-17T01:22:51.920Z,18.87
2018-06-17T01:23:23.107Z,18.88
2018-06-17T01:23:54.288Z,18.87
2018-06-17T01:24:25.521Z,18.85
2018-06-17T01:24:56.684Z,18.85
2018-06-17T01:25:27.853Z,18.84
2018-06-17T01:25:59.024Z,18.84
2018-06-17T01:26:30.197Z,18.83
2018-06-17T01:27:01.369Z,18.83
2018-06-17T01:27:32.536Z,18.84
2018-06-17T01:28:03.718Z,18.83
2018-06-17T01:28:34.896Z,18.82
2018-06-17T01:29:06.064Z,18.81
2018-06-17T01:29:37.264Z,18.81
2018-06-17T01:30:08.428Z,18.78
2018-06-17T01:30:39.606Z,18.76
2018-06-17T01:31:10.791Z,18.73
2018-06-17T01:31:41.981Z,18.71
2018-06-17T01:32:13.177Z,18.73
2018-06-17T01:32:44.343Z,18.73
2018-06-17T01:33:15.513Z,18.74
2018-06-17T01:33:46.691Z,18.76
2018-06-17T01:34:17.908Z,18.76
2018-06-17T01:34:49.095Z,18.76
2018-06-17T01:35:20.283Z,18.76
2018-06-17T01:35:51.464Z,18.74
2018-06-17T01:36:22.641Z,18.72
2018-06-17T01:36:53.800Z,18.72
2018-06-17T01:37:24.961Z,18.72
2018-06-17T01:37:56.132Z,18.71
2018-06-17T01:38:27.331Z,18.66
2018-06-17T01:38:58.505Z,18.64
2018-06-17T01:39:29.667Z,18.64
2018-06-17T01:40:00.863Z,18.65
2018-06-17T01:40:32.033Z,18.65
2018-06-17T01:41:03.226Z,18.64
2018-06-17T01:41:34.418Z,18.66
2018-06-17T01:42:05.611Z,18.65
2018-06-17T01:42:36.800Z,18.67
2018-06-17T01:43:07.972Z,18.65
2018-06-17T01:43:39.142Z,18.64
2018-06-17T01:44:10.318Z,18.63
2018-06-17T01:44:41.548Z,18.60
2018-06-17T01:45:12.722Z,18.61
2018-06-17T01:45:43.903Z,18.57
2018-06-17T01:46:15.072Z,18.60
2018-06-17T01:46:46.260Z,18.59
2018-06-17T01:47:17.429Z,18.61
2018-06-17T01:47:48.676Z,18.54
2018-06-17T01:48:19.872Z,18.54
2018-06-17T01:48:51.040Z,18.54
2018-06-17T01:49:22.263Z,18.54
2018-06-17T01:49:53.440Z,18.52
2018-06-17T01:50:24.608Z,18.51
2018-06-17T01:50:55.791Z,18.47
2018-06-17T01:51:26.987Z,18.43
2018-06-17T01:51:58.194Z,18.42
2018-06-17T01:52:29.368Z,18.41
2018-06-17T01:53:00.617Z,18.39
2018-06-17T01:53:31.787Z,18.38
2018-06-17T01:54:02.969Z,18.38
2018-06-17T01:54:34.147Z,18.36
2018-06-17T01:55:05.331Z,18.38
2018-06-17T01:55:36.522Z,18.34
2018-06-17T01:56:07.711Z,18.31
2018-06-17T01:56:38.925Z,18.30
2018-06-17T01:57:10.115Z,18.30
2018-06-17T01:57:41.272Z,18.29
2018-06-17T01:58:12.495Z,18.29
2018-06-17T01:58:43.689Z,18.29
2018-06-17T01:59:14.881Z,18.30
2018-06-17T01:59:46.108Z,18.29
2018-06-17T02:00:17.280Z,18.29
2018-06-17T02:00:48.487Z,18.28
2018-06-17T02:01:19.675Z,18.25
2018-06-17T02:01:50.858Z,18.25
2018-06-17T02:02:22.051Z,18.22
2018-06-17T02:02:53.255Z,18.22
2018-06-17T02:03:24.443Z,18.20
2018-06-17T02:03:55.671Z,18.17
2018-06-17T02:04:26.865Z,18.14
2018-06-17T02:04:58.047Z,18.16
2018-06-17T02:05:29.243Z,18.16
2018-06-17T02:06:00.447Z,18.14
2018-06-17T02:06:31.627Z,18.16
2018-06-17T02:07:02.797Z,18.17
2018-06-17T02:07:33.969Z,18.14
2018-06-17T02:08:05.157Z,18.13
2018-06-17T02:08:36.319Z,18.13
2018-06-17T02:09:07.514Z,18.12
2018-06-17T02:09:38.684Z,18.13
2018-06-17T02:10:09.844Z,18.15
2018-06-17T02:10:41.023Z,18.15
2018-06-17T02:11:12.201Z,18.18
2018-06-17T02:11:43.417Z,18.14
2018-06-17T02:12:14.649Z,18.12
2018-06-17T02:12:45.881Z,18.12
2018-06-17T02:13:17.112Z,18.08
2018-06-17T02:13:48.376Z,18.05
2018-06-17T02:14:19.604Z,18.03
2018-06-17T02:14:50.879Z,18.03
2018-06-17T02:15:22.114Z,18.02
2018-06-17T02:15:53.366Z,18.03
2018-06-17T02:16:24.599Z,18.02
2018-06-17T02:16:55.868Z,18.02
2018-06-17T02:17:27.110Z,18.03
2018-06-17T02:17:58.342Z,18.04
2018-06-17T02:18:29.569Z,18.06
2018-06-17T02:19:00.801Z,18.09
2018-06-17T02:19:32.032Z,18.09
2018-06-17T02:20:03.274Z,18.09
2018-06-17T02:20:34.498Z,18.06
2018-06-17T02:21:05.747Z,18.05
2018-06-17T02:21:37.012Z,18.03
2018-06-17T02:22:08.242Z,18.01
2018-06-17T02:22:39.473Z,18.01
2018-06-17T02:23:10.710Z,17.98
2018-06-17T02:23:41.945Z,17.97
2018-06-17T02:24:13.173Z,17.96
2018-06-17T02:24:44.457Z,17.96
2018-06-17T02:25:15.684Z,17.95
2018-06-17T02:25:46.923Z,17.94
2018-06-17T02:26:18.152Z,17.93
2018-06-17T02:26:49.389Z,17.93
2018-06-17T02:27:20.625Z,17.91
2018-06-17T02:27:51.857Z,17.91
2018-06-17T02:28:23.109Z,17.89
2018-06-17T02:28:54.337Z,17.86
2018-06-17T02:29:25.569Z,17.82
2018-06-17T02:29:56.849Z,17.82
2018-06-17T02:30:28.073Z,17.80
2018-06-17T02:30:59.343Z,17.80
2018-06-17T02:31:30.577Z,17.77
2018-06-17T02:32:01.813Z,17.77
2018-06-17T02:32:33.093Z,17.76
2018-06-17T02:33:04.333Z,17.77
2018-06-17T02:33:35.637Z,17.77
2018-06-17T02:34:06.864Z,17.75
2018-06-17T02:34:38.090Z,17.77
2018-06-17T02:35:09.321Z,17.78
2018-06-17T02:35:40.550Z,17.79
2018-06-17T02:36:11.780Z,17.79
2018-06-17T02:36:43.013Z,17.79
2018-06-17T02:37:14.249Z,17.81
2018-06-17T02:37:45.520Z,17.81
2018-06-17T02:38:16.777Z,17.79
2018-06-17T02:38:48.025Z,17.78
2018-06-17T02:39:19.254Z,17.76
2018-06-17T02:39:50.485Z,17.75
2018-06-17T02:40:21.721Z,17.72
2018-06-17T02:40:52.967Z,17.72
2018-06-17T02:41:24.204Z,17.72
2018-06-17T02:41:55.441Z,17.72
2018-06-17T02:42:26.673Z,17.72
2018-06-17T02:42:57.956Z,17.69
2018-06-17T02:43:29.205Z,17.66
2018-06-17T02:44:00.444Z,17.64
2018-06-17T02:44:31.684Z,17.63
2018-06-17T02:45:02.958Z,17.61
2018-06-17T02:45:34.189Z,17.60
2018-06-17T02:46:05.421Z,17.60
2018-06-17T02:46:36.653Z,17.59
2018-06-17T02:47:07.889Z,17.59
2018-06-17T02:47:39.127Z,17.59
2018-06-17T02:48:10.389Z,17.59
2018-06-17T02:48:41.641Z,17.57
2018-06-17T02:49:12.882Z,17.56
2018-06-17T02:49:44.105Z,17.57
2018-06-17T02:50:15.338Z,17.57
2018-06-17T02:50:46.614Z,17.57
2018-06-17T02:51:17.846Z,17.57
2018-06-17T02:51:49.077Z,17.58
2018-06-17T02:52:20.302Z,17.58
2018-06-17T02:52:51.526Z,17.59
2018-06-17T02:53:22.756Z,17.60
2018-06-17T02:53:53.999Z,17.60
2018-06-17T02:54:25.233Z,17.60
2018-06-17T02:54:56.463Z,17.61
2018-06-17T02:55:27.693Z,17.64
2018-06-17T02:55:58.979Z,17.66
2018-06-17T02:56:30.211Z,17.69
2018-06-17T02:57:01.490Z,17.73
2018-06-17T02:57:32.722Z,17.77
2018-06-17T02:58:03.956Z,17.81
2018-06-17T02:58:35.297Z,17.83
2018-06-17T02:59:06.529Z,17.83
2018-06-17T02:59:37.752Z,17.82
2018-06-17T03:00:08.985Z,17.81
2018-06-17T03:00:40.227Z,17.82
2018-06-17T03:01:11.497Z,17.83
2018-06-17T03:01:42.729Z,17.84
2018-06-17T03:02:14.017Z,17.88
2018-06-17T03:02:45.256Z,17.91
2018-06-17T03:03:16.491Z,17.95
2018-06-17T03:03:47.791Z,17.99
2018-06-17T03:04:19.045Z,18.04
2018-06-17T03:04:50.283Z,18.08
2018-06-17T03:05:21.517Z,18.16
2018-06-17T03:05:52.753Z,18.22
2018-06-17T03:06:23.982Z,18.24
2018-06-17T03:06:55.221Z,18.27
2018-06-17T03:07:26.497Z,18.33
2018-06-17T03:07:57.729Z,18.37
2018-06-17T03:08:28.960Z,18.42
2018-06-17T03:09:00.193Z,18.46
2018-06-17T03:09:31.425Z,18.51
2018-06-17T03:10:02.688Z,18.54
2018-06-17T03:10:33.917Z,18.55
2018-06-17T03:11:05.149Z,18.58
2018-06-17T03:11:36.381Z,18.62
2018-06-17T03:12:07.616Z,18.66
2018-06-17T03:12:38.850Z,18.69
2018-06-17T03:13:10.084Z,18.72
2018-06-17T03:13:41.309Z,18.65
2018-06-17T03:14:12.541Z,18.63
2018-06-17T03:14:43.778Z,18.63
2018-06-17T03:15:15.057Z,18.63
2018-06-17T03:15:46.288Z,18.64
2018-06-17T03:16:17.521Z,18.67
2018-06-17T03:16:48.748Z,18.69
2018-06-17T03:17:19.972Z,18.71
2018-06-17T03:17:51.197Z,18.72
2018-06-17T03:18:22.488Z,18.70
2018-06-17T03:18:53.729Z,18.70
2018-06-17T03:19:24.966Z,18.68
2018-06-17T03:19:56.201Z,18.63
2018-06-17T03:20:27.469Z,18.58
2018-06-17T03:20:58.717Z,18.55
2018-06-17T03:21:29.954Z,18.55
2018-06-17T03:22:01.176Z,18.53
2018-06-17T03:22:32.402Z,18.53
2018-06-17T03:23:03.636Z,18.56
2018-06-17T03:23:34.862Z,18.58
2018-06-17T03:24:06.158Z,18.59
2018-06-17T03:24:37.404Z,18.62
2018-06-17T03:25:08.646Z,18.61
2018-06-17T03:25:39.884Z,18.62
2018-06-17T03:26:11.138Z,18.65
2018-06-17T03:26:42.360Z,18.68
2018-06-17T03:27:13.585Z,18.71
2018-06-17T03:27:44.816Z,18.71
2018-06-17T03:28:16.049Z,18.70
2018-06-17T03:28:47.289Z,18.69
2018-06-17T03:29:18.573Z,18.66
2018-06-17T03:29:49.812Z,18.64
2018-06-17T03:30:21.054Z,18.62
2018-06-17T03:30:52.310Z,18.59
2018-06-17T03:31:23.545Z,18.57
2018-06-17T03:31:54.781Z,18.57
2018-06-17T03:32:26.020Z,18.56
2018-06-17T03:32:57.258Z,18.51
2018-06-17T03:33:28.517Z,18.45
2018-06-17T03:33:59.741Z,18.39
2018-06-17T03:34:31.011Z,18.34
2018-06-17T03:35:02.252Z,18.32
2018-06-17T03:35:33.484Z,18.31
2018-06-17T03:36:04.718Z,18.31
2018-06-17T03:36:35.949Z,18.32
2018-06-17T03:37:07.180Z,18.30
2018-06-17T03:37:38.410Z,18.33
2018-06-17T03:38:09.638Z,18.32
2018-06-17T03:38:40.895Z,18.39
2018-06-17T03:39:12.132Z,18.48
2018-06-17T03:39:43.421Z,18.64
2018-06-17T03:40:14.662Z,18.84
2018-06-17T03:40:45.929Z,18.99
2018-06-17T03:41:17.170Z,19.02
2018-06-17T03:41:48.412Z,19.24
2018-06-17T03:42:19.654Z,19.29
2018-06-17T03:42:50.883Z,19.30
2018-06-17T03:43:22.113Z,19.38
2018-06-17T03:43:53.341Z,19.51
2018-06-17T03:44:24.577Z,19.65
2018-06-17T03:44:55.850Z,19.83
2018-06-17T03:45:27.084Z,19.99
2018-06-17T03:45:58.334Z,20.18
2018-06-17T03:46:29.570Z,20.36
2018-06-17T03:47:00.801Z,20.54
2018-06-17T03:47:32.037Z,20.67
2018-06-17T03:48:03.297Z,20.74
2018-06-17T03:48:34.577Z,20.83
2018-06-17T03:49:05.813Z,20.90
2018-06-17T03:49:37.050Z,20.97
2018-06-17T03:50:08.290Z,20.93
2018-06-17T03:50:39.527Z,20.90
2018-06-17T03:51:10.856Z,20.81
2018-06-17T03:51:42.124Z,20.71
2018-06-17T03:52:13.357Z,20.58
2018-06-17T03:52:44.597Z,20.45
2018-06-17T03:53:15.834Z,20.33
2018-06-17T03:53:47.078Z,20.21
2018-06-17T03:54:18.305Z,20.18
2018-06-17T03:54:49.549Z,20.14
2018-06-17T03:55:20.781Z,20.10
2018-06-17T03:55:52.032Z,20.06
2018-06-17T03:56:23.308Z,20.01
2018-06-17T03:56:54.552Z,20.06
2018-06-17T03:57:25.789Z,20.14
2018-06-17T03:57:57.061Z,20.19
2018-06-17T03:58:28.293Z,20.29
2018-06-17T03:58:59.525Z,20.41
2018-06-17T03:59:30.769Z,20.55
2018-06-17T04:00:02.015Z,20.68
2018-06-17T04:00:33.248Z,20.61
2018-06-17T04:01:04.488Z,20.64
2018-06-17T04:01:35.724Z,20.70
2018-06-17T04:02:07.005Z,20.75
2018-06-17T04:02:38.232Z,20.68
2018-06-17T04:03:09.461Z,20.59
2018-06-17T04:03:40.705Z,20.46
2018-06-17T04:04:12.025Z,20.36
2018-06-17T04:04:43.260Z,20.26
2018-06-17T04:05:14.497Z,20.18
2018-06-17T04:05:45.725Z,20.12
2018-06-17T04:06:16.970Z,20.03
2018-06-17T04:06:48.201Z,20.01
2018-06-17T04:07:19.529Z,19.99
2018-06-17T04:07:50.768Z,19.95
2018-06-17T04:08:22.013Z,19.86
2018-06-17T04:08:53.249Z,19.80
2018-06-17T04:09:24.493Z,19.64
2018-06-17T04:09:55.725Z,19.53
2018-06-17T04:10:26.974Z,19.49
2018-06-17T04:10:58.312Z,19.40
2018-06-17T04:11:29.562Z,19.35
2018-06-17T04:12:00.803Z,19.26
2018-06-17T04:12:32.086Z,19.24
2018-06-17T04:13:03.319Z,19.18
2018-06-17T04:13:34.585Z,19.13
2018-06-17T04:14:05.814Z,19.10
2018-06-17T04:14:37.054Z,19.06
2018-06-17T04:15:08.288Z,19.06
2018-06-17T04:15:39.529Z,19.08
2018-06-17T04:16:10.761Z,19.10
2018-06-17T04:16:41.993Z,19.15
2018-06-17T04:17:13.230Z,19.18
2018-06-17T04:17:44.492Z,19.22
2018-06-17T04:18:15.792Z,19.26
2018-06-17T04:18:47.082Z,19.30
2018-06-17T04:19:18.315Z,19.34
2018-06-17T04:19:49.551Z,19.40
2018-06-17T04:20:20.781Z,19.45
2018-06-17T04:20:52.017Z,19.48
2018-06-17T04:21:23.249Z,19.49
2018-06-17T04:21:54.484Z,19.53
2018-06-17T04:22:25.718Z,19.59
2018-06-17T04:22:56.956Z,19.63
2018-06-17T04:23:28.197Z,19.63
2018-06-17T04:23:59.465Z,19.65
2018-06-17T04:24:30.694Z,19.70
2018-06-17T04:25:01.925Z,19.72
2018-06-17T04:25:33.156Z,19.73
2018-06-17T04:26:04.434Z,19.73
2018-06-17T04:26:35.669Z,19.80
2018-06-17T04:27:06.904Z,19.84
2018-06-17T04:27:38.185Z,19.88
2018-06-17T04:28:09.410Z,19.90
2018-06-17T04:28:40.644Z,19.97
2018-06-17T04:29:11.928Z,20.00
2018-06-17T04:29:43.157Z,19.85
2018-06-17T04:30:14.441Z,20.02
2018-06-17T04:30:45.677Z,20.06
2018-06-17T04:31:16.913Z,20.09
2018-06-17T04:31:48.142Z,20.13
2018-06-17T04:32:19.421Z,20.17
2018-06-17T04:32:50.659Z,20.17
2018-06-17T04:33:21.953Z,20.20
2018-06-17T04:33:53.188Z,20.21
2018-06-17T04:34:24.429Z,20.26
2018-06-17T04:34:55.713Z,20.31
2018-06-17T04:35:26.959Z,20.35
2018-06-17T04:35:58.228Z,20.34
2018-06-17T04:36:29.468Z,20.34
2018-06-17T04:37:00.702Z,20.35
2018-06-17T04:37:31.935Z,20.40
2018-06-17T04:38:03.169Z,20.39
2018-06-17T04:38:34.417Z,20.43
2018-06-17T04:39:05.649Z,20.39
2018-06-17T04:39:36.888Z,20.37
2018-06-17T04:40:08.159Z,20.42
2018-06-17T04:40:39.403Z,20.46
2018-06-17T04:41:10.657Z,20.47
2018-06-17T04:41:41.886Z,20.48
2018-06-17T04:42:13.173Z,20.48
2018-06-17T04:42:44.404Z,20.50
2018-06-17T04:43:15.636Z,20.52
2018-06-17T04:43:46.876Z,20.59
2018-06-17T04:44:18.109Z,20.62
2018-06-17T04:44:49.341Z,20.68
2018-06-17T04:45:20.580Z,20.68
2018-06-17T04:45:51.857Z,20.67
2018-06-17T04:46:23.127Z,20.67
2018-06-17T04:46:54.366Z,20.66
2018-06-17T04:47:25.605Z,20.68
2018-06-17T04:47:56.873Z,20.70
2018-06-17T04:48:28.130Z,20.70
2018-06-17T04:48:59.381Z,20.76
2018-06-17T04:49:30.613Z,20.81
2018-06-17T04:50:01.883Z,20.82
2018-06-17T04:50:33.125Z,20.78
2018-06-17T04:51:04.389Z,20.87
2018-06-17T04:51:35.626Z,20.91
2018-06-17T04:52:06.869Z,20.97
2018-06-17T04:52:38.102Z,20.98
2018-06-17T04:53:09.385Z,20.99
2018-06-17T04:53:40.621Z,21.06
2018-06-17T04:54:11.858Z,21.11
2018-06-17T04:54:43.120Z,21.17
2018-06-17T04:55:14.356Z,21.27
2018-06-17T04:55:45.612Z,21.37
2018-06-17T04:56:16.884Z,21.42
2018-06-17T04:56:48.120Z,21.43
2018-06-17T04:57:19.361Z,21.47
2018-06-17T04:57:50.603Z,21.50
2018-06-17T04:58:21.844Z,21.52
2018-06-17T04:58:53.076Z,21.54
2018-06-17T04:59:24.352Z,21.53
2018-06-17T04:59:55.626Z,21.57
2018-06-17T05:00:26.845Z,21.62
2018-06-17T05:00:58.137Z,21.68
2018-06-17T05:01:29.365Z,21.70
2018-06-17T05:02:00.599Z,21.63
2018-06-17T05:02:31.824Z,21.67
2018-06-17T05:03:03.053Z,21.72
2018-06-17T05:03:34.325Z,21.76
2018-06-17T05:04:05.553Z,21.80
2018-06-17T05:04:36.817Z,21.84
2018-06-17T05:05:08.066Z,21.87
2018-06-17T05:05:39.301Z,21.86
2018-06-17T05:06:10.615Z,21.91
2018-06-17T05:06:41.845Z,21.89
2018-06-17T05:07:13.077Z,21.87
2018-06-17T05:07:44.314Z,21.84
2018-06-17T05:08:15.564Z,21.89
2018-06-17T05:08:46.805Z,21.92
2018-06-17T05:09:18.037Z,21.91
2018-06-17T05:09:49.262Z,21.96
2018-06-17T05:10:20.525Z,21.95
2018-06-17T05:10:51.765Z,21.83
2018-06-17T05:11:22.997Z,21.90
2018-06-17T05:11:54.225Z,21.93
2018-06-17T05:12:25.457Z,21.96
2018-06-17T05:12:56.689Z,22.01
2018-06-17T05:13:27.972Z,22.04
2018-06-17T05:13:59.216Z,22.14
2018-06-17T05:14:30.440Z,22.12
2018-06-17T05:15:01.678Z,22.08
2018-06-17T05:15:32.909Z,22.12
2018-06-17T05:16:04.184Z,22.27
2018-06-17T05:16:35.416Z,22.47
2018-06-17T05:17:06.674Z,22.61
2018-06-17T05:17:37.933Z,22.64
2018-06-17T05:18:09.165Z,22.61
2018-06-17T05:18:40.403Z,22.58
2018-06-17T05:19:11.638Z,22.64
2018-06-17T05:19:42.905Z,22.64
2018-06-17T05:20:14.150Z,22.74
2018-06-17T05:20:45.381Z,22.78
2018-06-17T05:21:16.617Z,22.75
2018-06-17T05:21:47.845Z,22.77
2018-06-17T05:22:19.079Z,22.80
2018-06-17T05:22:50.315Z,22.87
2018-06-17T05:23:21.570Z,23.08
2018-06-17T05:23:52.809Z,23.39
2018-06-17T05:24:24.053Z,23.74
2018-06-17T05:24:55.318Z,24.13
2018-06-17T05:25:26.595Z,24.48
2018-06-17T05:25:57.866Z,24.85
2018-06-17T05:26:29.093Z,25.06
2018-06-17T05:27:00.329Z,25.14
2018-06-17T05:27:31.558Z,25.27
2018-06-17T05:28:02.789Z,25.37
2018-06-17T05:28:34.077Z,25.50
2018-06-17T05:29:05.315Z,25.61
2018-06-17T05:29:36.545Z,25.66
2018-06-17T05:30:07.790Z,25.79
2018-06-17T05:30:39.049Z,26.12
2018-06-17T05:31:10.291Z,26.38
2018-06-17T05:31:41.525Z,26.70
2018-06-17T05:32:12.757Z,26.93
2018-06-17T05:32:44.032Z,27.00
2018-06-17T05:33:15.282Z,27.08
2018-06-17T05:33:46.570Z,27.22
2018-06-17T05:34:17.789Z,27.30
2018-06-17T05:34:49.018Z,27.34
2018-06-17T05:35:20.249Z,27.34
2018-06-17T05:35:51.481Z,27.34
2018-06-17T05:36:22.758Z,27.48
2018-06-17T05:36:53.995Z,27.69
2018-06-17T05:37:25.243Z,27.92
2018-06-17T05:37:56.476Z,28.25
2018-06-17T05:38:27.722Z,28.45
2018-06-17T05:38:58.980Z,28.59
2018-06-17T05:39:30.225Z,28.85
2018-06-17T05:40:01.462Z,29.04
2018-06-17T05:40:32.745Z,29.13
2018-06-17T05:41:03.988Z,29.17
2018-06-17T05:41:35.217Z,29.26
2018-06-17T05:42:06.454Z,29.16
2018-06-17T05:42:37.685Z,29.16
2018-06-17T05:43:08.920Z,29.09
2018-06-17T05:43:40.233Z,29.06
2018-06-17T05:44:11.479Z,28.97
2018-06-17T05:44:42.717Z,29.08
2018-06-17T05:45:13.950Z,29.09
2018-06-17T05:45:45.221Z,29.20
2018-06-17T05:46:16.469Z,29.32
2018-06-17T05:46:47.717Z,29.47
2018-06-17T05:47:18.954Z,29.56
2018-06-17T05:47:50.185Z,29.53
2018-06-17T05:48:21.469Z,29.52
2018-06-17T05:48:52.701Z,29.49
2018-06-17T05:49:23.928Z,29.53
2018-06-17T05:49:55.165Z,29.43
2018-06-17T05:50:26.389Z,29.39
2018-06-17T05:50:57.656Z,29.32
2018-06-17T05:51:28.920Z,29.24
2018-06-17T05:52:00.145Z,29.16
2018-06-17T05:52:31.375Z,28.98
2018-06-17T05:53:02.611Z,28.91
2018-06-17T05:53:33.841Z,28.95
2018-06-17T05:54:05.073Z,28.99
2018-06-17T05:54:36.324Z,28.98
2018-06-17T05:55:07.558Z,29.02
2018-06-17T05:55:38.789Z,28.83
2018-06-17T05:56:10.202Z,28.87
2018-06-17T05:56:41.441Z,28.82
2018-06-17T05:57:12.673Z,28.71
2018-06-17T05:57:43.905Z,28.68
2018-06-17T05:58:15.185Z,28.72
2018-06-17T05:58:46.422Z,28.75
2018-06-17T05:59:17.661Z,28.82
2018-06-17T05:59:48.897Z,28.77
2018-06-17T06:00:20.134Z,28.66
2018-06-17T06:00:51.366Z,28.51
2018-06-17T06:01:22.641Z,28.48
2018-06-17T06:01:53.872Z,28.44
2018-06-17T06:02:25.103Z,28.23
2018-06-17T06:02:56.333Z,28.06
2018-06-17T06:03:27.658Z,27.88
2018-06-17T06:03:58.911Z,27.69
2018-06-17T06:04:30.143Z,27.61
2018-06-17T06:05:01.382Z,27.77
2018-06-17T06:05:32.610Z,27.86
2018-06-17T06:06:03.890Z,27.84
2018-06-17T06:06:35.125Z,27.85
2018-06-17T06:07:06.357Z,28.02
2018-06-17T06:07:37.585Z,28.01
2018-06-17T06:08:08.823Z,28.10
2018-06-17T06:08:40.076Z,28.04
2018-06-17T06:09:11.322Z,28.00
2018-06-17T06:09:42.562Z,28.01
2018-06-17T06:10:13.798Z,27.85
2018-06-17T06:10:45.030Z,27.92
2018-06-17T06:11:16.336Z,27.96
2018-06-17T06:11:47.642Z,27.89
2018-06-17T06:12:18.878Z,27.94
2018-06-17T06:12:50.112Z,27.97
2018-06-17T06:13:21.341Z,27.84
2018-06-17T06:13:52.568Z,27.86
2018-06-17T06:14:23.820Z,27.82
2018-06-17T06:14:55.061Z,27.82
2018-06-17T06:15:26.345Z,27.65
2018-06-17T06:15:57.573Z,27.49
2018-06-17T06:16:28.841Z,27.47
2018-06-17T06:17:00.080Z,27.40
2018-06-17T06:17:31.317Z,27.36
2018-06-17T06:18:02.553Z,27.19
2018-06-17T06:18:33.787Z,26.99
2018-06-17T06:19:05.040Z,26.83
2018-06-17T06:19:36.299Z,26.70
2018-06-17T06:20:07.550Z,26.61
2018-06-17T06:20:38.836Z,26.58
2018-06-17T06:21:10.074Z,26.52
2018-06-17T06:21:41.387Z,26.39
2018-06-17T06:22:12.770Z,26.32
2018-06-17T06:22:44.092Z,26.28
2018-06-17T06:23:15.345Z,26.28
2018-06-17T06:23:46.628Z,26.29
2018-06-17T06:24:17.968Z,26.38
2018-06-17T06:24:49.389Z,26.48
2018-06-17T06:25:20.756Z,26.57
2018-06-17T06:25:52.111Z,26.65
2018-06-17T06:26:23.572Z,26.74
2018-06-17T06:26:55.031Z,26.90
2018-06-17T06:27:26.488Z,26.95
2018-06-17T06:27:57.852Z,27.09
2018-06-17T06:28:29.379Z,27.13
2018-06-17T06:29:00.902Z,27.28
2018-06-17T06:29:32.409Z,27.36
2018-06-17T06:30:03.909Z,27.37
2018-06-17T06:30:35.439Z,27.37
2018-06-17T06:31:06.960Z,27.26
2018-06-17T06:31:38.420Z,27.09
2018-06-17T06:32:09.924Z,26.92
2018-06-17T06:32:41.430Z,26.89
2018-06-17T06:33:12.927Z,25.43
2018-06-17T06:33:44.444Z,26.63
2018-06-17T06:34:15.903Z,26.52
2018-06-17T06:34:47.433Z,26.45
2018-06-17T06:35:18.973Z,26.54
2018-06-17T06:35:50.484Z,26.64
2018-06-17T06:36:21.893Z,26.72
2018-06-17T06:36:53.294Z,26.81
2018-06-17T06:37:24.737Z,26.93
2018-06-17T06:37:56.155Z,27.05
2018-06-17T06:38:27.595Z,27.12
2018-06-17T06:38:59.087Z,27.19
2018-06-17T06:39:30.484Z,27.35
2018-06-17T06:40:01.934Z,27.41
2018-06-17T06:40:33.345Z,27.41
2018-06-17T06:41:04.719Z,27.26
2018-06-17T06:41:36.148Z,27.07
2018-06-17T06:42:07.583Z,26.87